Terminal Aerodrome Forecast
Issued by NWS

Current Version | Previous Version | Graphics & Text | Print | Product List | Glossary On
Versions: 1 2 3 4 5 6 7 8 9 10 11 12 13 14 15 16 17 18 19 20
077
FTUS41 KILN 162340
TAFLUK
TAF
KLUK 162340Z 1700/1724 18004KT P6SM SCT250
     FM170700 18003KT P6SM BKN120
     FM171500 21010KT P6SM VCSH SCT050 BKN150
     FM171900 21012KT P6SM -SHRA VCTS BKN045CB OVC100=

USA.gov is the U.S. government's official web portal to all federal, state and local government web resources and services.